CheckWX is a tool to help pilots better visualize weather data.  It is not intended as a substitute for an official pre-flight weather briefing.

13:56:27 UTC

KMLI METAR
Quad City International Airport
Moline, Illinois, USA
Current

1 hour ago

KMLI 261252Z 31013G23KT 10SM CLR 10/01 A2992 RMK AO2 SLP134 T01000006
Observed
Apr-26 @ 12:52 UTC
Wind
  • 310° at 13 KTS
  • Gusting to 23 KTS
Visibility
10 SM
Flight Rules
VFR
Cloud Levels
  • Clear skies
Temperature
10°C / 50°F
Dewpoint
C / 34°F
Humidity
54%
Altimeter
29.92" Hg
Pressure
1013.22 hPa
Previous

2 hours ago

KMLI 261152Z 31017G23KT 10SM CLR 09/01 A2990 RMK AO2 SLP125 70007 T00940006 10106 20072 53023
Observed
Apr-26 @ 11:52 UTC
Wind
  • 310° at 17 KTS
  • Gusting to 23 KTS
Visibility
10 SM
Flight Rules
VFR
Cloud Levels
  • Clear skies
Temperature
C / 48°F
Dewpoint
C / 34°F
Humidity
58%
Altimeter
29.9" Hg
Pressure
1012.52 hPa
24 Hour Rain
0.07"
Previous

3 hours ago

KMLI 261052Z 30012KT 10SM CLR 09/02 A2987 RMK AO2 SLP113 T00890022
Observed
Apr-26 @ 10:52 UTC
Wind
  • 300° at 12 KTS
Visibility
10 SM
Flight Rules
VFR
Cloud Levels
  • Clear skies
Temperature
C / 48°F
Dewpoint
C / 36°F
Humidity
62%
Altimeter
29.87" Hg
Pressure
1011.52 hPa